createdAt,value
2022-09-04T00:02:22.176Z,16.86
2022-09-04T00:05:00.394Z,16.80
2022-09-04T00:07:30.909Z,16.78
2022-09-04T00:10:11.694Z,16.75
2022-09-04T00:12:45.915Z,16.75
2022-09-04T00:15:19.354Z,16.71
2022-09-04T00:17:52.360Z,16.70
2022-09-04T00:20:30.396Z,16.71
2022-09-04T00:23:03.857Z,16.69
2022-09-04T00:25:35.585Z,16.70
2022-09-04T00:28:09.999Z,16.70
2022-09-04T00:30:50.205Z,16.70
2022-09-04T00:33:26.133Z,16.69
2022-09-04T00:35:59.543Z,16.67
2022-09-04T00:38:36.488Z,16.63
2022-09-04T00:41:12.204Z,16.55
2022-09-04T00:43:59.736Z,16.51
2022-09-04T00:47:09.324Z,16.46
2022-09-04T00:50:01.191Z,16.40
2022-09-04T00:52:53.809Z,16.37
2022-09-04T00:55:44.771Z,16.37
2022-09-04T00:58:25.087Z,16.38
2022-09-04T01:00:58.189Z,16.37
2022-09-04T01:03:48.459Z,16.34
2022-09-04T01:06:36.372Z,16.30
2022-09-04T01:09:27.453Z,16.26
2022-09-04T01:12:07.642Z,16.25
2022-09-04T01:14:41.295Z,16.24
2022-09-04T01:17:19.021Z,16.19
2022-09-04T01:19:59.824Z,16.17
2022-09-04T01:22:52.904Z,16.15
2022-09-04T01:25:33.584Z,16.12
2022-09-04T01:28:06.723Z,16.10
2022-09-04T01:30:44.193Z,16.11
2022-09-04T01:33:20.335Z,16.05
2022-09-04T01:35:55.221Z,16.01
2022-09-04T01:38:32.429Z,15.99
2022-09-04T01:41:07.220Z,15.94
2022-09-04T01:43:36.115Z,15.89
2022-09-04T01:46:31.235Z,15.85
2022-09-04T01:49:07.367Z,15.85
2022-09-04T01:51:40.873Z,15.85
2022-09-04T01:54:13.736Z,15.83
2022-09-04T01:56:49.165Z,15.79
2022-09-04T01:59:27.008Z,15.78
2022-09-04T02:01:59.878Z,15.75
2022-09-04T02:04:35.772Z,15.71
2022-09-04T02:07:17.340Z,15.68
2022-09-04T02:09:54.886Z,15.66
2022-09-04T02:12:35.821Z,15.62
2022-09-04T02:15:13.701Z,15.64
2022-09-04T02:17:48.800Z,15.64
2022-09-04T02:20:24.763Z,15.59
2022-09-04T02:23:03.539Z,15.62
2022-09-04T02:25:37.103Z,15.62
2022-09-04T02:28:15.378Z,15.60
2022-09-04T02:30:54.566Z,15.57
2022-09-04T02:33:30.264Z,15.59
2022-09-04T02:36:03.680Z,15.57
2022-09-04T02:38:37.245Z,15.57
2022-09-04T02:41:14.581Z,15.53
2022-09-04T02:44:02.863Z,15.49
2022-09-04T02:46:43.392Z,15.48
2022-09-04T02:49:19.980Z,15.49
2022-09-04T02:52:01.788Z,15.44
2022-09-04T02:55:04.853Z,15.43
2022-09-04T02:57:42.652Z,15.39
2022-09-04T03:00:15.459Z,15.40
2022-09-04T03:02:54.101Z,15.42
2022-09-04T03:05:25.875Z,15.37
2022-09-04T03:08:01.251Z,15.37
2022-09-04T03:10:32.700Z,15.35
2022-09-04T03:13:06.291Z,15.35
2022-09-04T03:15:40.637Z,15.39
2022-09-04T03:18:19.845Z,15.45
2022-09-04T03:20:53.912Z,15.44
2022-09-04T03:23:24.834Z,15.43
2022-09-04T03:26:15.778Z,15.38
2022-09-04T03:28:56.215Z,15.26
2022-09-04T03:31:41.577Z,15.24
2022-09-04T03:34:35.314Z,15.20
2022-09-04T03:37:13.267Z,15.18
2022-09-04T03:39:53.499Z,15.14
2022-09-04T03:42:31.351Z,15.13
2022-09-04T03:45:08.595Z,15.12
2022-09-04T03:47:48.042Z,15.13
2022-09-04T03:50:29.215Z,15.10
2022-09-04T03:53:07.388Z,15.04
2022-09-04T03:56:12.678Z,14.99
2022-09-04T03:58:49.990Z,14.92
2022-09-04T04:01:29.323Z,14.90
2022-09-04T04:04:18.281Z,14.87
2022-09-04T04:06:54.687Z,14.87
2022-09-04T04:09:55.632Z,14.84
2022-09-04T04:12:42.603Z,14.83
2022-09-04T04:15:33.491Z,14.81
2022-09-04T04:18:19.644Z,14.79
2022-09-04T04:20:57.672Z,14.78
2022-09-04T04:23:52.075Z,14.75
2022-09-04T04:26:26.381Z,14.74
2022-09-04T04:29:09.104Z,14.75
2022-09-04T04:32:10.816Z,14.74
2022-09-04T04:34:55.637Z,14.70
2022-09-04T04:37:38.752Z,14.69
2022-09-04T04:40:16.298Z,14.67
2022-09-04T04:42:53.274Z,14.67
2022-09-04T04:45:46.563Z,14.65
2022-09-04T04:48:24.849Z,14.63
2022-09-04T04:51:05.061Z,14.63
2022-09-04T04:53:37.075Z,14.63
2022-09-04T04:56:14.119Z,14.67
2022-09-04T04:58:59.246Z,14.66
2022-09-04T05:01:35.207Z,14.63
2022-09-04T05:04:12.129Z,14.66
2022-09-04T05:06:47.099Z,14.64
2022-09-04T05:09:22.898Z,14.65
2022-09-04T05:11:57.878Z,14.68
2022-09-04T05:14:42.381Z,14.71
2022-09-04T05:17:27.970Z,14.72
2022-09-04T05:20:21.902Z,14.74
2022-09-04T05:22:58.956Z,14.73
2022-09-04T05:25:37.825Z,14.75
2022-09-04T05:28:18.609Z,14.79
2022-09-04T05:30:52.054Z,14.81
2022-09-04T05:33:26.018Z,14.85
2022-09-04T05:36:00.154Z,14.90
2022-09-04T05:38:34.922Z,14.94
2022-09-04T05:41:07.866Z,14.96
2022-09-04T05:43:53.429Z,14.99
2022-09-04T05:46:39.401Z,15.00
2022-09-04T05:49:21.697Z,15.00
2022-09-04T05:52:16.144Z,15.04
2022-09-04T05:55:16.502Z,15.08
2022-09-04T05:58:01.851Z,15.15
2022-09-04T06:00:42.681Z,15.21
2022-09-04T06:03:39.588Z,15.26
2022-09-04T06:06:21.491Z,15.32
2022-09-04T06:09:23.949Z,15.42
2022-09-04T06:12:05.961Z,15.52
2022-09-04T06:14:54.295Z,15.58
2022-09-04T06:17:36.067Z,15.68
2022-09-04T06:20:21.706Z,15.75
2022-09-04T06:23:09.769Z,15.82
2022-09-04T06:26:21.884Z,15.95
2022-09-04T06:29:11.976Z,16.07
2022-09-04T06:32:07.830Z,16.17
2022-09-04T06:34:58.796Z,16.31
2022-09-04T06:37:36.063Z,16.45
2022-09-04T06:40:23.772Z,16.56
2022-09-04T06:43:04.713Z,16.74
2022-09-04T06:45:44.741Z,16.87
2022-09-04T06:48:25.780Z,17.04
2022-09-04T06:51:08.061Z,17.25
2022-09-04T06:53:42.502Z,17.50
2022-09-04T06:56:30.388Z,17.70
2022-09-04T06:59:31.264Z,17.92
2022-09-04T07:02:17.194Z,18.15
2022-09-04T07:04:57.177Z,18.31
2022-09-04T07:07:35.555Z,18.42
2022-09-04T07:10:10.546Z,18.57
2022-09-04T07:13:38.476Z,18.72
2022-09-04T07:16:31.011Z,18.83
2022-09-04T07:19:13.587Z,18.90
2022-09-04T07:21:52.076Z,18.98
2022-09-04T07:27:18.849Z,19.19
2022-09-04T07:29:51.329Z,19.24
2022-09-04T07:32:25.891Z,19.28
2022-09-04T07:34:59.947Z,19.36
2022-09-04T07:37:36.383Z,19.48
2022-09-04T07:40:11.373Z,19.56
2022-09-04T07:42:48.186Z,19.61
2022-09-04T07:45:29.951Z,19.64
2022-09-04T07:48:09.325Z,19.67
2022-09-04T07:50:42.370Z,19.83
2022-09-04T07:53:28.996Z,19.87
2022-09-04T07:56:02.327Z,19.92
2022-09-04T07:58:45.572Z,20.04
2022-09-04T08:01:37.008Z,20.21
2022-09-04T08:04:38.018Z,20.29
2022-09-04T08:07:11.459Z,20.38
2022-09-04T08:10:04.838Z,20.44
2022-09-04T08:12:56.220Z,20.47
2022-09-04T08:15:40.990Z,20.54
2022-09-04T08:18:37.736Z,20.67
2022-09-04T08:21:18.357Z,20.72
2022-09-04T08:24:17.725Z,20.80
2022-09-04T08:26:56.457Z,20.86
2022-09-04T08:29:40.911Z,20.95
2022-09-04T08:32:32.474Z,21.04
2022-09-04T08:35:18.301Z,21.21
2022-09-04T08:38:03.253Z,21.28
2022-09-04T08:41:00.665Z,21.41
2022-09-04T08:43:44.344Z,21.60
2022-09-04T08:46:49.385Z,21.71
2022-09-04T08:49:45.039Z,21.87
2022-09-04T08:52:41.263Z,22.01
2022-09-04T08:55:46.108Z,22.10
2022-09-04T08:58:47.882Z,22.22
2022-09-04T09:01:56.360Z,22.29
2022-09-04T09:04:47.264Z,22.44
2022-09-04T09:08:05.937Z,22.62
2022-09-04T09:11:02.135Z,22.59
2022-09-04T09:14:01.753Z,22.72
2022-09-04T09:16:43.737Z,22.88
2022-09-04T09:19:20.727Z,23.08
2022-09-04T09:22:08.145Z,23.35
2022-09-04T09:25:16.489Z,23.50
2022-09-04T09:28:25.033Z,23.56
2022-09-04T09:31:43.974Z,23.82
2022-09-04T09:34:48.968Z,23.85
2022-09-04T09:37:48.157Z,24.02
2022-09-04T09:40:43.186Z,23.86
2022-09-04T09:43:35.956Z,23.84
2022-09-04T09:46:33.400Z,23.89
2022-09-04T09:49:30.067Z,24.09
2022-09-04T09:52:29.669Z,24.26
2022-09-04T09:55:33.023Z,24.56
2022-09-04T09:58:24.823Z,24.32
2022-09-04T10:01:08.496Z,24.20
2022-09-04T10:04:06.712Z,24.31
2022-09-04T10:07:00.213Z,24.32
2022-09-04T10:10:14.981Z,24.33
2022-09-04T10:13:26.173Z,24.52
2022-09-04T10:16:20.721Z,24.69
2022-09-04T10:19:16.376Z,24.94
2022-09-04T10:22:10.376Z,25.19
2022-09-04T10:25:31.011Z,25.17
2022-09-04T10:28:26.436Z,25.07
2022-09-04T10:31:29.996Z,25.31
2022-09-04T10:34:13.452Z,25.24
2022-09-04T10:36:46.979Z,25.39
2022-09-04T10:39:42.704Z,25.66
2022-09-04T10:42:25.327Z,25.96
2022-09-04T10:45:08.019Z,26.11
2022-09-04T10:47:58.729Z,25.94
2022-09-04T10:50:46.325Z,25.95
2022-09-04T10:53:40.454Z,26.14
2022-09-04T10:56:22.021Z,26.22
2022-09-04T10:59:10.671Z,26.51
2022-09-04T11:02:13.816Z,26.46
2022-09-04T11:05:06.988Z,26.73
2022-09-04T11:07:58.928Z,27.16
2022-09-04T11:10:47.493Z,27.31
2022-09-04T11:13:41.097Z,27.76
2022-09-04T11:16:26.578Z,28.21
2022-09-04T11:19:28.749Z,28.68
2022-09-04T11:22:21.380Z,29.22
2022-09-04T11:25:22.998Z,29.42
2022-09-04T11:28:20.433Z,29.79
2022-09-04T11:31:05.853Z,29.94
2022-09-04T11:34:32.988Z,30.24
2022-09-04T11:37:40.245Z,30.31
2022-09-04T11:40:50.501Z,30.64
2022-09-04T11:43:44.340Z,30.63
2022-09-04T11:46:32.859Z,31.19
2022-09-04T11:49:34.438Z,31.28
2022-09-04T11:52:08.276Z,31.71
2022-09-04T11:55:09.847Z,32.03
2022-09-04T11:57:53.443Z,32.39
2022-09-04T12:00:21.480Z,32.65
2022-09-04T12:03:12.180Z,32.01
2022-09-04T12:06:00.259Z,31.49
2022-09-04T12:08:48.330Z,31.98
2022-09-04T12:12:02.035Z,32.49
2022-09-04T12:15:07.485Z,32.65
2022-09-04T12:18:02.719Z,32.81
2022-09-04T12:20:50.536Z,33.64
2022-09-04T12:23:32.304Z,32.07
2022-09-04T12:26:51.966Z,32.74
2022-09-04T12:29:45.787Z,33.59
2022-09-04T12:32:50.355Z,34.23
2022-09-04T12:35:54.436Z,35.10
2022-09-04T12:39:00.363Z,35.47
2022-09-04T12:41:35.764Z,35.06
2022-09-04T12:44:15.349Z,35.38
2022-09-04T12:46:56.886Z,35.82
2022-09-04T12:49:44.859Z,36.64
2022-09-04T12:52:20.679Z,36.63
2022-09-04T12:55:01.258Z,35.63
2022-09-04T12:57:42.504Z,36.85
2022-09-04T13:00:14.981Z,37.64
2022-09-04T13:02:57.188Z,37.58
2022-09-04T13:05:53.050Z,37.34
2022-09-04T13:08:35.722Z,37.26
2022-09-04T13:11:19.579Z,36.28
2022-09-04T13:13:56.666Z,36.74
2022-09-04T13:16:34.095Z,37.41
2022-09-04T13:19:15.348Z,36.77
2022-09-04T13:21:57.399Z,37.46
2022-09-04T13:24:39.958Z,37.41
2022-09-04T13:27:26.280Z,38.30
2022-09-04T13:30:06.663Z,39.72
2022-09-04T13:32:53.176Z,40.22
2022-09-04T13:35:38.583Z,41.07
2022-09-04T13:38:44.569Z,41.99
2022-09-04T13:41:36.253Z,42.36
2022-09-04T13:44:19.782Z,40.29
2022-09-04T13:46:51.939Z,39.91
2022-09-04T13:49:24.743Z,39.48
2022-09-04T13:51:59.385Z,39.50
2022-09-04T13:54:31.347Z,37.83
2022-09-04T13:57:07.630Z,39.57
2022-09-04T13:59:36.130Z,39.86
2022-09-04T14:02:08.228Z,41.62
2022-09-04T14:04:43.865Z,42.94
2022-09-04T14:07:19.424Z,44.06
2022-09-04T14:09:50.399Z,44.07
2022-09-04T14:12:36.559Z,43.94
2022-09-04T14:15:31.079Z,44.39
2022-09-04T14:18:13.958Z,43.31
2022-09-04T14:20:52.367Z,45.08
2022-09-04T14:23:32.900Z,45.39
2022-09-04T14:26:12.452Z,44.51
2022-09-04T14:28:50.670Z,45.01
2022-09-04T14:31:28.289Z,45.30
2022-09-04T14:34:13.719Z,46.37
2022-09-04T14:36:56.408Z,46.83
2022-09-04T14:39:27.971Z,46.56
2022-09-04T14:42:12.102Z,46.83
2022-09-04T14:45:02.412Z,42.27
2022-09-04T14:47:42.165Z,41.77
2022-09-04T14:50:13.091Z,43.30
2022-09-04T14:52:44.599Z,44.06
2022-09-04T14:55:17.124Z,42.41
2022-09-04T14:57:51.169Z,44.28
2022-09-04T15:00:22.056Z,46.09
2022-09-04T15:02:57.933Z,47.17
2022-09-04T15:05:30.536Z,47.32
2022-09-04T15:08:02.368Z,48.46
2022-09-04T15:10:32.932Z,48.91
2022-09-04T15:13:42.259Z,49.14
2022-09-04T15:16:19.241Z,49.74
2022-09-04T15:18:56.371Z,49.06
2022-09-04T15:21:32.027Z,49.66
2022-09-04T15:24:12.885Z,50.16
2022-09-04T15:26:46.721Z,47.11
2022-09-04T15:29:21.047Z,46.47
2022-09-04T15:31:49.240Z,46.65
2022-09-04T15:34:22.189Z,47.07
2022-09-04T15:36:50.625Z,47.79
2022-09-04T15:39:32.169Z,47.40
2022-09-04T15:42:00.058Z,46.33
2022-09-04T15:44:33.711Z,47.15
2022-09-04T15:47:06.319Z,46.89
2022-09-04T15:49:47.603Z,48.05
2022-09-04T15:52:26.813Z,48.59
2022-09-04T15:55:05.387Z,48.75
2022-09-04T15:57:42.691Z,48.52
2022-09-04T16:00:12.503Z,48.96
2022-09-04T16:02:54.441Z,48.66
2022-09-04T16:05:28.043Z,49.58
2022-09-04T16:08:04.043Z,50.06
2022-09-04T16:10:48.879Z,50.07
2022-09-04T16:13:34.747Z,49.95
2022-09-04T16:16:09.622Z,50.55
2022-09-04T16:18:48.691Z,50.87
2022-09-04T16:21:24.286Z,50.84
2022-09-04T16:23:52.656Z,50.58
2022-09-04T16:26:28.124Z,51.44
2022-09-04T16:29:03.362Z,50.05
2022-09-04T16:31:34.618Z,49.92
2022-09-04T16:34:08.729Z,49.27
2022-09-04T16:36:45.657Z,49.40
2022-09-04T16:39:23.926Z,49.73
2022-09-04T16:41:58.227Z,49.03
2022-09-04T16:44:31.436Z,49.12
2022-09-04T16:47:10.364Z,49.27
2022-09-04T16:49:49.008Z,48.35
2022-09-04T16:52:45.267Z,48.83
2022-09-04T16:55:24.943Z,48.63
2022-09-04T16:58:07.227Z,48.08
2022-09-04T17:00:55.184Z,47.63
2022-09-04T17:03:40.825Z,46.32
2022-09-04T17:06:18.818Z,45.55
2022-09-04T17:08:50.817Z,44.72
2022-09-04T17:11:24.415Z,44.85
2022-09-04T17:14:09.003Z,43.49
2022-09-04T17:16:48.940Z,42.32
2022-09-04T17:19:16.901Z,41.26
2022-09-04T17:28:52.142Z,40.57
2022-09-04T17:29:08.974Z,39.93
2022-09-04T17:29:14.872Z,40.06
2022-09-04T17:31:38.351Z,39.03
2022-09-04T17:37:44.061Z,37.78
2022-09-04T17:40:36.454Z,37.00
2022-09-04T17:40:57.533Z,35.87
2022-09-04T17:43:22.701Z,34.64
2022-09-04T17:46:04.465Z,33.66
2022-09-04T17:48:39.277Z,32.39
2022-09-04T17:51:08.904Z,31.84
2022-09-04T17:53:39.486Z,31.18
2022-09-04T17:56:14.811Z,30.54
2022-09-04T17:58:49.781Z,29.81
2022-09-04T18:01:23.367Z,29.13
2022-09-04T18:04:20.922Z,28.71
2022-09-04T18:06:56.301Z,28.06
2022-09-04T18:09:31.868Z,27.66
2022-09-04T18:12:10.935Z,27.22
2022-09-04T18:14:55.641Z,26.84
2022-09-04T18:17:44.709Z,26.36
2022-09-04T18:20:24.180Z,26.07
2022-09-04T18:23:28.159Z,25.89
2022-09-04T18:26:00.444Z,25.47
2022-09-04T18:28:35.031Z,24.96
2022-09-04T18:37:05.620Z,24.78
2022-09-04T18:37:24.546Z,24.73
2022-09-04T18:37:45.687Z,24.51
2022-09-04T18:40:12.612Z,24.31
2022-09-04T18:49:03.050Z,24.06
2022-09-04T18:50:25.211Z,23.88
2022-09-04T18:50:45.369Z,23.62
2022-09-04T18:51:24.828Z,23.38
2022-09-04T18:53:59.364Z,23.23
2022-09-04T18:56:29.976Z,23.13
2022-09-04T18:59:03.099Z,22.98
2022-09-04T19:01:58.044Z,22.83
2022-09-04T19:04:35.868Z,22.74
2022-09-04T19:07:08.235Z,22.61
2022-09-04T19:10:25.295Z,22.45
2022-09-04T19:13:02.597Z,22.33
2022-09-04T19:15:55.371Z,22.24
2022-09-04T19:18:30.109Z,22.11
2022-09-04T19:21:16.541Z,22.05
2022-09-04T19:23:50.147Z,21.89
2022-09-04T19:26:22.528Z,21.79
2022-09-04T19:28:55.197Z,21.71
2022-09-04T19:31:31.879Z,21.62
2022-09-04T19:34:09.523Z,21.54
2022-09-04T19:36:43.677Z,21.48
2022-09-04T19:46:05.417Z,21.39
2022-09-04T19:46:11.593Z,21.27
2022-09-04T19:46:18.262Z,21.20
2022-09-04T19:48:26.860Z,21.11
2022-09-04T19:53:22.202Z,21.06
2022-09-04T19:53:58.165Z,20.94
2022-09-04T19:56:32.509Z,20.84
2022-09-04T19:59:18.915Z,20.82
2022-09-04T20:01:53.256Z,20.79
2022-09-04T20:04:41.101Z,20.74
2022-09-04T20:07:17.143Z,20.73
2022-09-04T20:09:48.925Z,20.70
2022-09-04T20:12:22.424Z,20.63
2022-09-04T20:14:55.028Z,20.54
2022-09-04T20:17:45.140Z,20.43
2022-09-04T20:20:21.163Z,20.30
2022-09-04T20:22:53.553Z,20.15
2022-09-04T20:25:41.369Z,20.07
2022-09-04T20:28:17.084Z,19.93
2022-09-04T20:30:49.492Z,19.88
2022-09-04T20:33:22.370Z,19.81
2022-09-04T20:35:59.591Z,19.75
2022-09-04T20:38:33.056Z,19.72
2022-09-04T20:41:03.087Z,19.69
2022-09-04T20:43:42.196Z,19.65
2022-09-04T20:49:35.221Z,19.61
2022-09-04T20:52:57.775Z,19.55
2022-09-04T20:52:58.601Z,19.51
2022-09-04T20:55:20.565Z,19.46
2022-09-04T21:02:28.331Z,19.39
2022-09-04T21:03:35.589Z,19.38
2022-09-04T21:04:00.863Z,19.41
2022-09-04T21:06:34.677Z,19.40
2022-09-04T21:09:11.872Z,19.36
2022-09-04T21:11:43.424Z,19.27
2022-09-04T21:14:16.711Z,19.21
2022-09-04T21:17:29.854Z,19.15
2022-09-04T21:20:27.025Z,19.10
2022-09-04T21:23:12.982Z,18.98
2022-09-04T21:25:51.397Z,18.95
2022-09-04T21:29:10.754Z,18.92
2022-09-04T21:32:11.468Z,18.89
2022-09-04T21:35:02.929Z,18.84
2022-09-04T21:37:47.726Z,18.80
2022-09-04T21:40:51.286Z,18.72
2022-09-04T21:43:50.425Z,18.66
2022-09-04T21:46:50.190Z,18.61
2022-09-04T21:49:34.552Z,18.58
2022-09-04T21:52:19.914Z,18.49
2022-09-04T21:59:24.495Z,18.45
2022-09-04T22:02:36.513Z,18.39
2022-09-04T22:02:41.884Z,18.31
2022-09-04T22:04:13.321Z,18.25
2022-09-04T22:10:52.886Z,18.24
2022-09-04T22:13:30.098Z,18.21
2022-09-04T22:13:40.556Z,18.22
2022-09-04T22:16:01.864Z,18.19
2022-09-04T22:18:39.090Z,18.17
2022-09-04T22:21:22.495Z,18.15
2022-09-04T22:24:23.305Z,18.14
2022-09-04T22:27:24.740Z,18.11
2022-09-04T22:30:05.008Z,18.08
2022-09-04T22:33:01.660Z,18.05
2022-09-04T22:36:13.313Z,18.03
2022-09-04T22:39:01.219Z,17.97
2022-09-04T22:41:45.293Z,17.97
2022-09-04T22:44:24.171Z,17.94
2022-09-04T22:47:26.746Z,17.91
2022-09-04T22:50:29.062Z,17.91
2022-09-04T22:54:01.307Z,17.83
2022-09-04T22:56:46.302Z,17.80
2022-09-04T22:59:34.253Z,17.77
2022-09-04T23:02:48.203Z,17.75
2022-09-04T23:05:47.450Z,17.71
2022-09-04T23:13:48.232Z,17.67
2022-09-04T23:13:52.955Z,17.65
2022-09-04T23:14:32.324Z,17.60
2022-09-04T23:17:28.276Z,17.56
2022-09-04T23:25:52.033Z,17.54
2022-09-04T23:26:49.989Z,17.54
2022-09-04T23:27:03.524Z,17.48
2022-09-04T23:29:51.601Z,17.45
2022-09-04T23:32:44.820Z,17.42
2022-09-04T23:35:27.572Z,17.39
2022-09-04T23:38:13.382Z,17.36
2022-09-04T23:40:44.561Z,17.37
2022-09-04T23:43:32.721Z,17.37
2022-09-04T23:46:25.967Z,17.35
2022-09-04T23:49:24.547Z,17.31
2022-09-04T23:52:03.032Z,17.29
2022-09-04T23:54:57.656Z,17.23
2022-09-04T23:57:29.670Z,17.19
